sensor_id;sensor_type;location;lat;lon;timestamp;P1;durP1;ratioP1;P2;durP2;ratioP2
41693;SDS011;27377;50.666;9.150;2022-11-21T00:00:44;8.35;;;2.10;;
41693;SDS011;27377;50.666;9.150;2022-11-21T00:03:11;7.82;;;2.30;;
41693;SDS011;27377;50.666;9.150;2022-11-21T00:05:40;7.82;;;2.13;;
41693;SDS011;27377;50.666;9.150;2022-11-21T00:08:11;7.05;;;2.03;;
41693;SDS011;27377;50.666;9.150;2022-11-21T00:10:38;8.43;;;2.08;;
41693;SDS011;27377;50.666;9.150;2022-11-21T00:13:04;8.27;;;2.10;;
41693;SDS011;27377;50.666;9.150;2022-11-21T00:15:34;7.22;;;1.95;;
41693;SDS011;27377;50.666;9.150;2022-11-21T00:18:03;9.52;;;2.17;;
41693;SDS011;27377;50.666;9.150;2022-11-21T00:20:29;6.75;;;1.83;;
41693;SDS011;27377;50.666;9.150;2022-11-21T00:22:55;8.55;;;1.75;;
41693;SDS011;27377;50.666;9.150;2022-11-21T00:25:21;9.03;;;2.10;;
41693;SDS011;27377;50.666;9.150;2022-11-21T00:27:46;8.73;;;2.20;;
41693;SDS011;27377;50.666;9.150;2022-11-21T00:30:15;8.20;;;1.67;;
41693;SDS011;27377;50.666;9.150;2022-11-21T00:32:40;7.43;;;1.70;;
41693;SDS011;27377;50.666;9.150;2022-11-21T00:35:06;7.50;;;1.70;;
41693;SDS011;27377;50.666;9.150;2022-11-21T00:37:35;9.80;;;1.83;;
41693;SDS011;27377;50.666;9.150;2022-11-21T00:40:01;6.80;;;1.80;;
41693;SDS011;27377;50.666;9.150;2022-11-21T00:42:26;9.60;;;1.67;;
41693;SDS011;27377;50.666;9.150;2022-11-21T00:44:52;8.03;;;1.90;;
41693;SDS011;27377;50.666;9.150;2022-11-21T00:47:20;10.20;;;1.90;;
41693;SDS011;27377;50.666;9.150;2022-11-21T00:49:46;8.63;;;1.60;;
41693;SDS011;27377;50.666;9.150;2022-11-21T00:52:12;11.30;;;1.90;;
41693;SDS011;27377;50.666;9.150;2022-11-21T00:54:38;8.57;;;2.17;;
41693;SDS011;27377;50.666;9.150;2022-11-21T00:57:04;9.70;;;1.85;;
41693;SDS011;27377;50.666;9.150;2022-11-21T00:59:29;10.27;;;1.80;;
41693;SDS011;27377;50.666;9.150;2022-11-21T01:01:55;7.85;;;1.83;;
41693;SDS011;27377;50.666;9.150;2022-11-21T01:04:20;7.38;;;1.73;;
41693;SDS011;27377;50.666;9.150;2022-11-21T01:06:46;9.88;;;2.05;;
41693;SDS011;27377;50.666;9.150;2022-11-21T01:09:14;8.88;;;2.10;;
41693;SDS011;27377;50.666;9.150;2022-11-21T01:11:40;9.23;;;1.98;;
41693;SDS011;27377;50.666;9.150;2022-11-21T01:14:05;7.75;;;1.85;;
41693;SDS011;27377;50.666;9.150;2022-11-21T01:16:31;7.25;;;1.58;;
41693;SDS011;27377;50.666;9.150;2022-11-21T01:18:57;9.07;;;1.90;;
41693;SDS011;27377;50.666;9.150;2022-11-21T01:21:31;9.97;;;1.93;;
41693;SDS011;27377;50.666;9.150;2022-11-21T01:23:58;9.48;;;1.67;;
41693;SDS011;27377;50.666;9.150;2022-11-21T01:26:25;10.73;;;2.20;;
41693;SDS011;27377;50.666;9.150;2022-11-21T01:28:52;9.45;;;2.00;;
41693;SDS011;27377;50.666;9.150;2022-11-21T01:31:25;11.00;;;1.90;;
41693;SDS011;27377;50.666;9.150;2022-11-21T01:33:52;8.88;;;1.90;;
41693;SDS011;27377;50.666;9.150;2022-11-21T01:36:19;8.38;;;1.85;;
41693;SDS011;27377;50.666;9.150;2022-11-21T01:38:47;9.35;;;1.95;;
41693;SDS011;27377;50.666;9.150;2022-11-21T01:41:21;8.60;;;1.88;;
41693;SDS011;27377;50.666;9.150;2022-11-21T01:43:49;9.50;;;1.80;;
41693;SDS011;27377;50.666;9.150;2022-11-21T01:46:16;7.97;;;2.03;;
41693;SDS011;27377;50.666;9.150;2022-11-21T01:51:14;10.27;;;2.03;;
41693;SDS011;27377;50.666;9.150;2022-11-21T01:53:42;8.38;;;1.90;;
41693;SDS011;27377;50.666;9.150;2022-11-21T01:56:10;7.53;;;1.70;;
41693;SDS011;27377;50.666;9.150;2022-11-21T01:58:36;11.43;;;2.10;;
41693;SDS011;27377;50.666;9.150;2022-11-21T02:01:04;11.43;;;1.90;;
41693;SDS011;27377;50.666;9.150;2022-11-21T02:03:30;6.38;;;1.80;;
41693;SDS011;27377;50.666;9.150;2022-11-21T02:06:00;7.97;;;1.80;;
41693;SDS011;27377;50.666;9.150;2022-11-21T02:08:26;9.70;;;2.03;;
41693;SDS011;27377;50.666;9.150;2022-11-21T02:13:51;7.38;;;1.70;;
41693;SDS011;27377;50.666;9.150;2022-11-21T02:16:17;6.60;;;1.70;;
41693;SDS011;27377;50.666;9.150;2022-11-21T02:18:42;6.40;;;1.80;;
41693;SDS011;27377;50.666;9.150;2022-11-21T02:24:00;6.13;;;1.65;;
41693;SDS011;27377;50.666;9.150;2022-11-21T02:26:27;6.88;;;1.50;;
41693;SDS011;27377;50.666;9.150;2022-11-21T02:28:54;8.47;;;1.80;;
41693;SDS011;27377;50.666;9.150;2022-11-21T02:31:20;7.40;;;1.73;;
41693;SDS011;27377;50.666;9.150;2022-11-21T02:33:46;6.22;;;1.50;;
41693;SDS011;27377;50.666;9.150;2022-11-21T02:36:30;5.45;;;1.42;;
41693;SDS011;27377;50.666;9.150;2022-11-21T02:39:06;5.57;;;1.40;;
41693;SDS011;27377;50.666;9.150;2022-11-21T02:41:42;5.10;;;1.50;;
41693;SDS011;27377;50.666;9.150;2022-11-21T02:44:22;4.80;;;1.25;;
41693;SDS011;27377;50.666;9.150;2022-11-21T02:47:12;3.75;;;1.15;;
41693;SDS011;27377;50.666;9.150;2022-11-21T02:49:57;7.75;;;1.55;;
41693;SDS011;27377;50.666;9.150;2022-11-21T02:52:28;4.38;;;1.30;;
41693;SDS011;27377;50.666;9.150;2022-11-21T02:54:53;4.00;;;1.20;;
41693;SDS011;27377;50.666;9.150;2022-11-21T02:57:19;5.03;;;1.40;;
41693;SDS011;27377;50.666;9.150;2022-11-21T02:59:44;4.68;;;1.20;;
41693;SDS011;27377;50.666;9.150;2022-11-21T03:02:10;4.65;;;1.25;;
41693;SDS011;27377;50.666;9.150;2022-11-21T03:04:36;4.07;;;1.08;;
41693;SDS011;27377;50.666;9.150;2022-11-21T03:07:01;4.63;;;1.10;;
41693;SDS011;27377;50.666;9.150;2022-11-21T03:09:27;3.03;;;1.10;;
41693;SDS011;27377;50.666;9.150;2022-11-21T03:11:52;3.60;;;1.10;;
41693;SDS011;27377;50.666;9.150;2022-11-21T03:14:18;4.27;;;1.20;;
41693;SDS011;27377;50.666;9.150;2022-11-21T03:16:43;4.27;;;1.00;;
41693;SDS011;27377;50.666;9.150;2022-11-21T03:19:09;3.43;;;1.03;;
41693;SDS011;27377;50.666;9.150;2022-11-21T03:21:34;3.40;;;1.23;;
41693;SDS011;27377;50.666;9.150;2022-11-21T03:24:00;3.20;;;1.10;;
41693;SDS011;27377;50.666;9.150;2022-11-21T03:26:26;3.77;;;1.10;;
41693;SDS011;27377;50.666;9.150;2022-11-21T03:28:52;3.50;;;1.00;;
41693;SDS011;27377;50.666;9.150;2022-11-21T03:31:17;2.57;;;1.10;;
41693;SDS011;27377;50.666;9.150;2022-11-21T03:33:43;2.60;;;1.10;;
41693;SDS011;27377;50.666;9.150;2022-11-21T03:36:08;3.83;;;1.10;;
41693;SDS011;27377;50.666;9.150;2022-11-21T03:38:34;2.50;;;1.17;;
41693;SDS011;27377;50.666;9.150;2022-11-21T03:41:03;3.70;;;1.10;;
41693;SDS011;27377;50.666;9.150;2022-11-21T03:43:30;1.75;;;0.90;;
41693;SDS011;27377;50.666;9.150;2022-11-21T03:45:55;3.08;;;1.23;;
41693;SDS011;27377;50.666;9.150;2022-11-21T03:48:21;4.60;;;1.13;;
41693;SDS011;27377;50.666;9.150;2022-11-21T03:50:46;3.00;;;1.20;;
41693;SDS011;27377;50.666;9.150;2022-11-21T03:53:12;3.17;;;1.37;;
41693;SDS011;27377;50.666;9.150;2022-11-21T03:55:38;3.00;;;1.30;;
41693;SDS011;27377;50.666;9.150;2022-11-21T03:58:03;2.60;;;1.23;;
41693;SDS011;27377;50.666;9.150;2022-11-21T04:00:29;3.00;;;1.40;;
41693;SDS011;27377;50.666;9.150;2022-11-21T04:02:54;2.90;;;1.30;;
41693;SDS011;27377;50.666;9.150;2022-11-21T04:05:20;2.90;;;1.50;;
41693;SDS011;27377;50.666;9.150;2022-11-21T04:07:45;2.57;;;1.33;;
41693;SDS011;27377;50.666;9.150;2022-11-21T04:10:11;3.03;;;1.50;;
41693;SDS011;27377;50.666;9.150;2022-11-21T04:12:36;2.53;;;1.30;;
41693;SDS011;27377;50.666;9.150;2022-11-21T04:15:02;2.37;;;1.40;;
41693;SDS011;27377;50.666;9.150;2022-11-21T04:17:28;2.73;;;1.50;;
41693;SDS011;27377;50.666;9.150;2022-11-21T04:19:53;3.17;;;1.43;;
41693;SDS011;27377;50.666;9.150;2022-11-21T04:22:19;3.15;;;1.50;;
41693;SDS011;27377;50.666;9.150;2022-11-21T04:24:44;3.13;;;1.50;;
41693;SDS011;27377;50.666;9.150;2022-11-21T04:27:10;3.40;;;1.50;;
41693;SDS011;27377;50.666;9.150;2022-11-21T04:29:35;3.47;;;1.57;;
41693;SDS011;27377;50.666;9.150;2022-11-21T04:32:01;3.80;;;1.70;;
41693;SDS011;27377;50.666;9.150;2022-11-21T04:34:26;2.50;;;1.45;;
41693;SDS011;27377;50.666;9.150;2022-11-21T04:36:52;2.92;;;1.60;;
41693;SDS011;27377;50.666;9.150;2022-11-21T04:39:18;2.50;;;1.58;;
41693;SDS011;27377;50.666;9.150;2022-11-21T04:41:43;3.47;;;1.63;;
41693;SDS011;27377;50.666;9.150;2022-11-21T04:44:09;3.45;;;1.70;;
41693;SDS011;27377;50.666;9.150;2022-11-21T04:46:34;4.65;;;2.10;;
41693;SDS011;27377;50.666;9.150;2022-11-21T04:49:00;4.50;;;2.13;;
41693;SDS011;27377;50.666;9.150;2022-11-21T04:51:25;3.92;;;2.20;;
41693;SDS011;27377;50.666;9.150;2022-11-21T04:53:51;4.97;;;2.20;;
41693;SDS011;27377;50.666;9.150;2022-11-21T04:56:16;3.30;;;1.90;;
41693;SDS011;27377;50.666;9.150;2022-11-21T04:58:42;3.40;;;2.17;;
41693;SDS011;27377;50.666;9.150;2022-11-21T05:01:08;3.38;;;2.13;;
41693;SDS011;27377;50.666;9.150;2022-11-21T05:03:34;4.25;;;2.10;;
41693;SDS011;27377;50.666;9.150;2022-11-21T05:06:00;3.05;;;2.03;;
41693;SDS011;27377;50.666;9.150;2022-11-21T05:08:26;3.78;;;2.00;;
41693;SDS011;27377;50.666;9.150;2022-11-21T05:10:52;6.35;;;2.80;;
41693;SDS011;27377;50.666;9.150;2022-11-21T05:13:37;6.00;;;3.00;;
41693;SDS011;27377;50.666;9.150;2022-11-21T05:16:02;4.32;;;2.70;;
41693;SDS011;27377;50.666;9.150;2022-11-21T05:18:28;4.57;;;2.53;;
41693;SDS011;27377;50.666;9.150;2022-11-21T05:20:54;5.43;;;2.30;;
41693;SDS011;27377;50.666;9.150;2022-11-21T05:23:20;5.13;;;2.50;;
41693;SDS011;27377;50.666;9.150;2022-11-21T05:25:46;4.82;;;2.60;;
41693;SDS011;27377;50.666;9.150;2022-11-21T05:28:14;7.30;;;3.17;;
41693;SDS011;27377;50.666;9.150;2022-11-21T05:30:39;5.05;;;2.97;;
41693;SDS011;27377;50.666;9.150;2022-11-21T05:33:05;5.72;;;3.47;;
41693;SDS011;27377;50.666;9.150;2022-11-21T05:35:31;5.32;;;3.13;;
41693;SDS011;27377;50.666;9.150;2022-11-21T05:37:57;7.00;;;3.05;;
41693;SDS011;27377;50.666;9.150;2022-11-21T05:40:25;6.83;;;3.40;;
41693;SDS011;27377;50.666;9.150;2022-11-21T05:42:50;7.57;;;4.07;;
41693;SDS011;27377;50.666;9.150;2022-11-21T05:45:37;8.27;;;4.13;;
41693;SDS011;27377;50.666;9.150;2022-11-21T05:48:03;10.30;;;4.90;;
41693;SDS011;27377;50.666;9.150;2022-11-21T05:50:34;9.18;;;4.30;;
41693;SDS011;27377;50.666;9.150;2022-11-21T05:53:01;8.52;;;4.43;;
41693;SDS011;27377;50.666;9.150;2022-11-21T05:55:30;9.55;;;4.78;;
41693;SDS011;27377;50.666;9.150;2022-11-21T05:57:58;11.63;;;4.68;;
41693;SDS011;27377;50.666;9.150;2022-11-21T06:00:27;9.88;;;4.50;;
41693;SDS011;27377;50.666;9.150;2022-11-21T06:02:53;9.03;;;4.60;;
41693;SDS011;27377;50.666;9.150;2022-11-21T06:05:37;10.48;;;4.80;;
41693;SDS011;27377;50.666;9.150;2022-11-21T06:08:02;9.68;;;4.43;;
41693;SDS011;27377;50.666;9.150;2022-11-21T06:10:28;9.13;;;4.75;;
41693;SDS011;27377;50.666;9.150;2022-11-21T06:12:54;11.25;;;5.22;;
41693;SDS011;27377;50.666;9.150;2022-11-21T06:15:25;10.55;;;4.90;;
41693;SDS011;27377;50.666;9.150;2022-11-21T06:17:51;11.20;;;5.30;;
41693;SDS011;27377;50.666;9.150;2022-11-21T06:20:19;9.45;;;5.30;;
41693;SDS011;27377;50.666;9.150;2022-11-21T06:22:45;9.80;;;5.72;;
41693;SDS011;27377;50.666;9.150;2022-11-21T06:25:11;13.00;;;7.17;;
41693;SDS011;27377;50.666;9.150;2022-11-21T06:27:36;31.17;;;15.47;;
41693;SDS011;27377;50.666;9.150;2022-11-21T06:30:03;25.02;;;12.88;;
41693;SDS011;27377;50.666;9.150;2022-11-21T06:32:28;16.57;;;8.37;;
41693;SDS011;27377;50.666;9.150;2022-11-21T06:34:54;15.50;;;7.17;;
41693;SDS011;27377;50.666;9.150;2022-11-21T06:37:19;13.63;;;7.00;;
41693;SDS011;27377;50.666;9.150;2022-11-21T06:39:45;13.43;;;6.83;;
41693;SDS011;27377;50.666;9.150;2022-11-21T06:42:11;13.43;;;6.77;;
41693;SDS011;27377;50.666;9.150;2022-11-21T06:44:36;13.43;;;7.07;;
41693;SDS011;27377;50.666;9.150;2022-11-21T06:47:02;12.93;;;7.47;;
41693;SDS011;27377;50.666;9.150;2022-11-21T06:49:27;14.85;;;7.40;;
41693;SDS011;27377;50.666;9.150;2022-11-21T06:51:53;13.60;;;6.95;;
41693;SDS011;27377;50.666;9.150;2022-11-21T06:54:18;11.88;;;6.45;;
41693;SDS011;27377;50.666;9.150;2022-11-21T06:56:47;13.60;;;6.37;;
41693;SDS011;27377;50.666;9.150;2022-11-21T06:59:16;10.33;;;6.33;;
41693;SDS011;27377;50.666;9.150;2022-11-21T07:01:42;11.27;;;6.20;;
41693;SDS011;27377;50.666;9.150;2022-11-21T07:04:07;11.53;;;6.23;;
41693;SDS011;27377;50.666;9.150;2022-11-21T07:06:33;10.43;;;5.90;;
41693;SDS011;27377;50.666;9.150;2022-11-21T07:08:59;12.57;;;6.50;;
41693;SDS011;27377;50.666;9.150;2022-11-21T07:11:24;11.13;;;6.73;;
41693;SDS011;27377;50.666;9.150;2022-11-21T07:13:50;12.53;;;7.30;;
41693;SDS011;27377;50.666;9.150;2022-11-21T07:16:15;13.20;;;7.33;;
41693;SDS011;27377;50.666;9.150;2022-11-21T07:18:41;13.87;;;7.53;;
41693;SDS011;27377;50.666;9.150;2022-11-21T07:21:06;13.23;;;6.80;;
41693;SDS011;27377;50.666;9.150;2022-11-21T07:23:33;13.57;;;7.25;;
41693;SDS011;27377;50.666;9.150;2022-11-21T07:25:59;13.70;;;7.35;;
41693;SDS011;27377;50.666;9.150;2022-11-21T07:28:30;14.05;;;8.27;;
41693;SDS011;27377;50.666;9.150;2022-11-21T07:30:56;12.40;;;7.80;;
41693;SDS011;27377;50.666;9.150;2022-11-21T07:33:22;14.30;;;8.25;;
41693;SDS011;27377;50.666;9.150;2022-11-21T07:35:48;14.57;;;7.50;;
41693;SDS011;27377;50.666;9.150;2022-11-21T07:38:14;10.93;;;7.27;;
41693;SDS011;27377;50.666;9.150;2022-11-21T07:40:39;11.85;;;7.05;;
41693;SDS011;27377;50.666;9.150;2022-11-21T07:43:05;12.32;;;7.50;;
41693;SDS011;27377;50.666;9.150;2022-11-21T07:45:31;11.77;;;6.82;;
41693;SDS011;27377;50.666;9.150;2022-11-21T07:48:01;11.40;;;6.50;;
41693;SDS011;27377;50.666;9.150;2022-11-21T07:50:28;9.00;;;6.03;;
41693;SDS011;27377;50.666;9.150;2022-11-21T07:53:00;11.30;;;5.93;;
41693;SDS011;27377;50.666;9.150;2022-11-21T07:55:28;11.82;;;5.13;;
41693;SDS011;27377;50.666;9.150;2022-11-21T07:57:58;9.53;;;5.30;;
41693;SDS011;27377;50.666;9.150;2022-11-21T08:00:25;9.80;;;5.23;;
41693;SDS011;27377;50.666;9.150;2022-11-21T08:02:51;9.40;;;5.22;;
41693;SDS011;27377;50.666;9.150;2022-11-21T08:05:17;8.87;;;5.07;;
41693;SDS011;27377;50.666;9.150;2022-11-21T08:07:42;7.00;;;5.00;;
41693;SDS011;27377;50.666;9.150;2022-11-21T08:10:08;9.00;;;5.67;;
41693;SDS011;27377;50.666;9.150;2022-11-21T08:12:34;9.47;;;5.83;;
41693;SDS011;27377;50.666;9.150;2022-11-21T08:14:59;9.73;;;6.17;;
41693;SDS011;27377;50.666;9.150;2022-11-21T08:17:25;12.70;;;7.00;;
41693;SDS011;27377;50.666;9.150;2022-11-21T08:19:51;12.65;;;7.20;;
41693;SDS011;27377;50.666;9.150;2022-11-21T08:22:16;10.07;;;6.70;;
41693;SDS011;27377;50.666;9.150;2022-11-21T08:24:42;12.85;;;7.13;;
41693;SDS011;27377;50.666;9.150;2022-11-21T08:27:07;11.50;;;7.10;;
41693;SDS011;27377;50.666;9.150;2022-11-21T08:29:33;11.35;;;7.10;;
41693;SDS011;27377;50.666;9.150;2022-11-21T08:31:58;12.45;;;7.47;;
41693;SDS011;27377;50.666;9.150;2022-11-21T08:34:24;13.80;;;7.50;;
41693;SDS011;27377;50.666;9.150;2022-11-21T08:36:49;12.57;;;7.60;;
41693;SDS011;27377;50.666;9.150;2022-11-21T08:39:15;13.95;;;8.05;;
41693;SDS011;27377;50.666;9.150;2022-11-21T08:41:40;13.43;;;8.05;;
41693;SDS011;27377;50.666;9.150;2022-11-21T08:44:25;13.37;;;8.30;;
41693;SDS011;27377;50.666;9.150;2022-11-21T08:46:51;14.52;;;8.07;;
41693;SDS011;27377;50.666;9.150;2022-11-21T08:49:17;16.30;;;7.97;;
41693;SDS011;27377;50.666;9.150;2022-11-21T08:51:42;19.58;;;7.97;;
41693;SDS011;27377;50.666;9.150;2022-11-21T08:54:11;15.32;;;7.25;;
41693;SDS011;27377;50.666;9.150;2022-11-21T08:56:37;17.77;;;7.35;;
41693;SDS011;27377;50.666;9.150;2022-11-21T08:59:02;16.60;;;7.10;;
41693;SDS011;27377;50.666;9.150;2022-11-21T09:01:28;14.10;;;6.13;;
41693;SDS011;27377;50.666;9.150;2022-11-21T09:03:53;14.32;;;6.15;;
41693;SDS011;27377;50.666;9.150;2022-11-21T09:06:19;13.75;;;5.97;;
41693;SDS011;27377;50.666;9.150;2022-11-21T09:08:44;14.90;;;5.80;;
41693;SDS011;27377;50.666;9.150;2022-11-21T09:11:10;16.38;;;6.28;;
41693;SDS011;27377;50.666;9.150;2022-11-21T09:13:35;14.27;;;6.13;;
41693;SDS011;27377;50.666;9.150;2022-11-21T09:16:01;14.77;;;5.77;;
41693;SDS011;27377;50.666;9.150;2022-11-21T09:18:47;14.20;;;5.85;;
41693;SDS011;27377;50.666;9.150;2022-11-21T09:21:15;16.75;;;5.70;;
41693;SDS011;27377;50.666;9.150;2022-11-21T09:23:41;15.85;;;5.82;;
41693;SDS011;27377;50.666;9.150;2022-11-21T09:26:08;15.93;;;5.18;;
41693;SDS011;27377;50.666;9.150;2022-11-21T09:28:33;12.88;;;5.03;;
41693;SDS011;27377;50.666;9.150;2022-11-21T09:31:03;13.77;;;5.10;;
41693;SDS011;27377;50.666;9.150;2022-11-21T09:33:29;14.50;;;5.38;;
41693;SDS011;27377;50.666;9.150;2022-11-21T09:35:57;15.60;;;5.30;;
41693;SDS011;27377;50.666;9.150;2022-11-21T09:38:23;14.68;;;5.32;;
41693;SDS011;27377;50.666;9.150;2022-11-21T09:40:50;15.55;;;4.85;;
41693;SDS011;27377;50.666;9.150;2022-11-21T09:46:14;12.35;;;4.40;;
41693;SDS011;27377;50.666;9.150;2022-11-21T09:51:22;12.47;;;4.20;;
41693;SDS011;27377;50.666;9.150;2022-11-21T09:56:50;12.25;;;4.00;;
41693;SDS011;27377;50.666;9.150;2022-11-21T09:59:23;9.85;;;3.58;;
41693;SDS011;27377;50.666;9.150;2022-11-21T10:02:09;8.68;;;3.70;;
41693;SDS011;27377;50.666;9.150;2022-11-21T10:04:39;8.57;;;3.03;;
41693;SDS011;27377;50.666;9.150;2022-11-21T10:07:06;9.83;;;3.30;;
41693;SDS011;27377;50.666;9.150;2022-11-21T10:12:36;9.60;;;3.90;;
41693;SDS011;27377;50.666;9.150;2022-11-21T10:15:26;9.20;;;3.55;;
41693;SDS011;27377;50.666;9.150;2022-11-21T10:23:11;8.70;;;3.40;;
41693;SDS011;27377;50.666;9.150;2022-11-21T10:26:12;11.02;;;4.18;;
41693;SDS011;27377;50.666;9.150;2022-11-21T10:28:43;10.38;;;4.53;;
41693;SDS011;27377;50.666;9.150;2022-11-21T10:31:11;11.02;;;4.07;;
41693;SDS011;27377;50.666;9.150;2022-11-21T10:33:39;10.15;;;3.67;;
41693;SDS011;27377;50.666;9.150;2022-11-21T10:38:49;8.75;;;3.30;;
41693;SDS011;27377;50.666;9.150;2022-11-21T10:41:22;9.53;;;3.30;;
41693;SDS011;27377;50.666;9.150;2022-11-21T10:44:23;8.90;;;3.13;;
41693;SDS011;27377;50.666;9.150;2022-11-21T10:47:18;9.52;;;2.75;;
41693;SDS011;27377;50.666;9.150;2022-11-21T10:49:54;9.10;;;3.20;;
41693;SDS011;27377;50.666;9.150;2022-11-21T10:52:24;10.32;;;2.88;;
41693;SDS011;27377;50.666;9.150;2022-11-21T11:02:38;7.50;;;2.83;;
41693;SDS011;27377;50.666;9.150;2022-11-21T11:08:03;9.15;;;2.83;;
41693;SDS011;27377;50.666;9.150;2022-11-21T11:10:37;8.23;;;2.80;;
41693;SDS011;27377;50.666;9.150;2022-11-21T11:18:39;6.22;;;2.35;;
41693;SDS011;27377;50.666;9.150;2022-11-21T11:21:19;6.47;;;2.20;;
41693;SDS011;27377;50.666;9.150;2022-11-21T11:23:48;5.68;;;2.03;;
41693;SDS011;27377;50.666;9.150;2022-11-21T11:26:22;6.53;;;2.35;;
41693;SDS011;27377;50.666;9.150;2022-11-21T11:28:53;6.32;;;2.17;;
41693;SDS011;27377;50.666;9.150;2022-11-21T11:34:10;7.78;;;2.13;;
41693;SDS011;27377;50.666;9.150;2022-11-21T11:36:42;7.53;;;2.30;;
41693;SDS011;27377;50.666;9.150;2022-11-21T11:42:14;7.20;;;2.50;;
41693;SDS011;27377;50.666;9.150;2022-11-21T11:47:56;7.75;;;2.80;;
41693;SDS011;27377;50.666;9.150;2022-11-21T11:50:26;6.30;;;2.38;;
41693;SDS011;27377;50.666;9.150;2022-11-21T11:53:22;6.53;;;2.83;;
41693;SDS011;27377;50.666;9.150;2022-11-21T11:55:59;7.85;;;3.08;;
41693;SDS011;27377;50.666;9.150;2022-11-21T11:58:33;9.65;;;2.60;;
41693;SDS011;27377;50.666;9.150;2022-11-21T12:01:09;8.93;;;2.72;;
41693;SDS011;27377;50.666;9.150;2022-11-21T12:03:56;8.80;;;2.47;;
41693;SDS011;27377;50.666;9.150;2022-11-21T12:06:44;7.00;;;2.30;;
41693;SDS011;27377;50.666;9.150;2022-11-21T12:09:31;6.70;;;2.40;;
41693;SDS011;27377;50.666;9.150;2022-11-21T12:12:14;7.38;;;2.40;;
41693;SDS011;27377;50.666;9.150;2022-11-21T12:23:19;6.25;;;2.33;;
41693;SDS011;27377;50.666;9.150;2022-11-21T12:25:58;6.63;;;2.47;;
41693;SDS011;27377;50.666;9.150;2022-11-21T12:28:45;5.70;;;2.20;;
41693;SDS011;27377;50.666;9.150;2022-11-21T12:39:45;5.70;;;2.22;;
41693;SDS011;27377;50.666;9.150;2022-11-21T12:42:37;7.82;;;2.60;;
41693;SDS011;27377;50.666;9.150;2022-11-21T12:45:30;8.40;;;2.40;;
41693;SDS011;27377;50.666;9.150;2022-11-21T12:48:13;6.32;;;2.30;;
41693;SDS011;27377;50.666;9.150;2022-11-21T12:56:58;7.38;;;2.10;;
41693;SDS011;27377;50.666;9.150;2022-11-21T13:05:39;7.05;;;2.10;;
41693;SDS011;27377;50.666;9.150;2022-11-21T13:08:10;7.20;;;2.10;;
41693;SDS011;27377;50.666;9.150;2022-11-21T13:10:41;7.57;;;2.30;;
41693;SDS011;27377;50.666;9.150;2022-11-21T13:13:17;9.07;;;2.63;;
41693;SDS011;27377;50.666;9.150;2022-11-21T13:15:55;5.93;;;2.30;;
41693;SDS011;27377;50.666;9.150;2022-11-21T13:18:26;9.25;;;2.85;;
41693;SDS011;27377;50.666;9.150;2022-11-21T13:20:54;6.82;;;2.45;;
41693;SDS011;27377;50.666;9.150;2022-11-21T13:23:36;7.77;;;2.30;;
41693;SDS011;27377;50.666;9.150;2022-11-21T13:26:33;7.78;;;2.50;;
41693;SDS011;27377;50.666;9.150;2022-11-21T13:28:48;5.28;;;2.30;;
41693;SDS011;27377;50.666;9.150;2022-11-21T13:31:25;9.30;;;2.78;;
41693;SDS011;27377;50.666;9.150;2022-11-21T13:33:54;6.10;;;2.30;;
41693;SDS011;27377;50.666;9.150;2022-11-21T13:49:23;6.60;;;2.20;;
41693;SDS011;27377;50.666;9.150;2022-11-21T13:51:57;7.28;;;2.35;;
41693;SDS011;27377;50.666;9.150;2022-11-21T13:54:34;7.00;;;2.40;;
41693;SDS011;27377;50.666;9.150;2022-11-21T13:57:43;6.88;;;3.30;;
41693;SDS011;27377;50.666;9.150;2022-11-21T14:00:28;7.95;;;3.60;;
41693;SDS011;27377;50.666;9.150;2022-11-21T14:03:22;9.27;;;3.72;;
41693;SDS011;27377;50.666;9.150;2022-11-21T14:06:07;10.15;;;5.25;;
41693;SDS011;27377;50.666;9.150;2022-11-21T14:08:39;12.35;;;6.38;;
41693;SDS011;27377;50.666;9.150;2022-11-21T14:11:18;9.82;;;5.43;;
41693;SDS011;27377;50.666;9.150;2022-11-21T14:13:46;9.65;;;5.72;;
41693;SDS011;27377;50.666;9.150;2022-11-21T14:19:05;10.85;;;5.68;;
41693;SDS011;27377;50.666;9.150;2022-11-21T14:21:38;9.23;;;5.18;;
41693;SDS011;27377;50.666;9.150;2022-11-21T14:24:10;8.13;;;3.80;;
41693;SDS011;27377;50.666;9.150;2022-11-21T14:26:45;8.05;;;4.18;;
41693;SDS011;27377;50.666;9.150;2022-11-21T14:29:16;7.25;;;3.85;;
41693;SDS011;27377;50.666;9.150;2022-11-21T14:32:01;6.67;;;3.50;;
41693;SDS011;27377;50.666;9.150;2022-11-21T14:34:28;6.88;;;3.47;;
41693;SDS011;27377;50.666;9.150;2022-11-21T14:36:57;5.68;;;2.80;;
41693;SDS011;27377;50.666;9.150;2022-11-21T14:39:27;5.10;;;2.13;;
41693;SDS011;27377;50.666;9.150;2022-11-21T14:41:56;5.65;;;2.42;;
41693;SDS011;27377;50.666;9.150;2022-11-21T14:44:26;7.43;;;2.50;;
41693;SDS011;27377;50.666;9.150;2022-11-21T14:47:04;6.33;;;2.10;;
41693;SDS011;27377;50.666;9.150;2022-11-21T14:49:46;8.07;;;2.17;;
41693;SDS011;27377;50.666;9.150;2022-11-21T14:52:26;5.03;;;1.90;;
41693;SDS011;27377;50.666;9.150;2022-11-21T14:55:01;6.17;;;2.27;;
41693;SDS011;27377;50.666;9.150;2022-11-21T14:57:30;5.57;;;1.80;;
41693;SDS011;27377;50.666;9.150;2022-11-21T15:00:00;5.13;;;1.80;;
41693;SDS011;27377;50.666;9.150;2022-11-21T15:02:29;6.93;;;1.88;;
41693;SDS011;27377;50.666;9.150;2022-11-21T15:05:00;6.00;;;2.00;;
41693;SDS011;27377;50.666;9.150;2022-11-21T15:07:28;5.67;;;1.90;;
41693;SDS011;27377;50.666;9.150;2022-11-21T15:09:59;7.20;;;2.00;;
41693;SDS011;27377;50.666;9.150;2022-11-21T15:12:44;5.70;;;1.85;;
41693;SDS011;27377;50.666;9.150;2022-11-21T15:17:57;4.85;;;1.60;;
41693;SDS011;27377;50.666;9.150;2022-11-21T15:20:24;5.15;;;1.48;;
41693;SDS011;27377;50.666;9.150;2022-11-21T15:22:53;5.00;;;1.70;;
41693;SDS011;27377;50.666;9.150;2022-11-21T15:25:24;4.13;;;1.50;;
41693;SDS011;27377;50.666;9.150;2022-11-21T15:28:05;5.78;;;1.80;;
41693;SDS011;27377;50.666;9.150;2022-11-21T15:30:33;5.63;;;1.60;;
41693;SDS011;27377;50.666;9.150;2022-11-21T15:33:03;4.88;;;1.70;;
41693;SDS011;27377;50.666;9.150;2022-11-21T15:38:21;7.13;;;1.50;;
41693;SDS011;27377;50.666;9.150;2022-11-21T15:43:55;4.80;;;1.33;;
41693;SDS011;27377;50.666;9.150;2022-11-21T15:46:39;3.05;;;1.20;;
41693;SDS011;27377;50.666;9.150;2022-11-21T15:49:09;3.83;;;1.25;;
41693;SDS011;27377;50.666;9.150;2022-11-21T15:51:40;4.78;;;1.33;;
41693;SDS011;27377;50.666;9.150;2022-11-21T15:54:14;5.47;;;1.45;;
41693;SDS011;27377;50.666;9.150;2022-11-21T15:56:45;5.65;;;1.35;;
41693;SDS011;27377;50.666;9.150;2022-11-21T15:59:11;5.03;;;1.30;;
41693;SDS011;27377;50.666;9.150;2022-11-21T16:01:37;3.13;;;1.40;;
41693;SDS011;27377;50.666;9.150;2022-11-21T16:04:07;4.47;;;1.60;;
41693;SDS011;27377;50.666;9.150;2022-11-21T16:06:34;6.13;;;1.77;;
41693;SDS011;27377;50.666;9.150;2022-11-21T16:09:01;4.38;;;1.90;;
41693;SDS011;27377;50.666;9.150;2022-11-21T16:11:27;6.57;;;1.70;;
41693;SDS011;27377;50.666;9.150;2022-11-21T16:13:59;4.90;;;1.97;;
41693;SDS011;27377;50.666;9.150;2022-11-21T16:16:27;3.60;;;1.70;;
41693;SDS011;27377;50.666;9.150;2022-11-21T16:18:55;4.88;;;1.90;;
41693;SDS011;27377;50.666;9.150;2022-11-21T16:21:21;6.05;;;1.92;;
41693;SDS011;27377;50.666;9.150;2022-11-21T16:23:47;5.03;;;1.90;;
41693;SDS011;27377;50.666;9.150;2022-11-21T16:26:12;5.60;;;2.10;;
41693;SDS011;27377;50.666;9.150;2022-11-21T16:28:38;5.20;;;2.00;;
41693;SDS011;27377;50.666;9.150;2022-11-21T16:31:04;5.47;;;2.07;;
41693;SDS011;27377;50.666;9.150;2022-11-21T16:33:30;4.97;;;2.45;;
41693;SDS011;27377;50.666;9.150;2022-11-21T16:35:56;5.60;;;2.60;;
41693;SDS011;27377;50.666;9.150;2022-11-21T16:38:22;5.60;;;3.00;;
41693;SDS011;27377;50.666;9.150;2022-11-21T16:40:58;5.90;;;3.60;;
41693;SDS011;27377;50.666;9.150;2022-11-21T16:43:28;8.57;;;3.70;;